North Berwick, Maine
Current Conditions -  °F | °C
As of 10:15 AM on Wednesday 22 Oct 2014 (Local Time) from KSFM Reporting Station
Overcast Overcast  
Wind Chill: 40°   Ceiling: 1400
Heat Index: 46°   Visibility: 3mi
Dew Point: 43°   Wind: 16mph
Humidity: 87%   Direction: 20°NNE
Pressure: 30.1"   Gusts: 22mph
Location:  43.3°N, 70.73°W
Report Text: KSFM 221415Z AUTO 02014G19KT 3SM SCT008 OVC014 08/06 A3010 RMK AO1 P0001
Loading
Personal Weather Stations






























Interactive Weather Map
Tropical Storm Tracking
New forecast layout! Learn more

10-Day Weather Forecast

Advertisements
Track Severe Weather on mobile